SBCT/CWB METAR and TAF weather

Enter ICAO airport designator
Station Type Date Time Source
SBCT METAR 2020/02/24 08:00 UTC NOAA

SBCT 240800Z 08002KT 9999 BKN014 16/15 Q1018


Station Type Date Time Source
SBCT Decoded METAR 2020/02/24 08:00 UTC NOAA

Curitiba Aeroporto , Brazil (SBCT) 25-31S 049-10W 908M
Feb 24, 2020 - 03:00 AM EST / 2020.02.24 0800 UTC
Wind: from the E (080 degrees) at 2 MPH (2 KT):0
Visibility: greater than 7 mile(s):0
Sky conditions: mostly cloudy
Temperature: 60 F (16 C)
Dew Point: 59 F (15 C)
Relative Humidity: 93%
Pressure (altimeter): 30.06 in. Hg (1018 hPa)
ob: SBCT 240800Z 08002KT 9999 BKN014 16/15 Q1018
cycle: 8

Station Type Date Time Source
SBCT TAF 2020/02/24 06:25 UTC NOAA

TAF SBCT 240300Z 2406/2506 08005KT 9999 BKN008 TN13/2408Z TX24/2418Z PROB40 2406/2410 2000 BR BKN004
BECMG 2410/2412 06007KT 9999 BKN012
BECMG 2412/2414 SCT020
BECMG 2418/2420 BKN020
BECMG 2421/2423 BKN005
RMK PDJ

Example: see airport list